Time;durP1;ratioP1;P1;durP2;ratioP2;P2;SDS_P1;SDS_P2;PMS_P1;PMS_P2;Temp;Humidity;BMP_temperature;BMP_pressure;BME280_temperature;BME280_humidity;BME280_pressure;Samples;Min_cycle;Max_cycle;Signal;HPM_P1;HPM_P2
2021/06/26 00:01:22;;;;;;;22.80;19.30;;;;;;;20.35;64.00;98230.53;8255126;28;20397;-62
2021/06/26 00:05:25;;;;;;;25.00;19.63;;;;;;;20.36;63.87;98232.22;8256437;28;20575;-62
2021/06/26 00:09:28;;;;;;;23.17;19.17;;;;;;;20.15;64.12;98232.97;8256096;28;20203;-62
2021/06/26 00:13:32;;;;;;;21.80;18.77;;;;;;;20.11;64.81;98237.63;8256270;28;20253;-62
2021/06/26 00:17:35;;;;;;;22.67;18.57;;;;;;;20.17;64.35;98248.63;8225894;28;20238;-62
2021/06/26 00:21:37;;;;;;;21.03;18.93;;;;;;;19.80;64.70;98249.72;8223939;29;20390;-62
2021/06/26 00:25:41;;;;;;;18.03;15.87;;;;;;;19.85;64.43;98239.66;8223929;29;20214;-62
2021/06/26 00:29:45;;;;;;;19.63;17.57;;;;;;;19.67;64.84;98233.22;8223495;29;20504;-62
2021/06/26 00:33:50;;;;;;;19.30;16.57;;;;;;;19.64;64.67;98221.13;8222873;29;20530;-62
2021/06/26 00:37:53;;;;;;;21.33;16.17;;;;;;;19.67;64.66;98227.94;8222789;29;21458;-62
2021/06/26 00:41:56;;;;;;;19.20;17.27;;;;;;;19.62;64.64;98230.91;8220077;29;20206;-62
2021/06/26 00:46:01;;;;;;;20.87;17.40;;;;;;;19.67;64.17;98236.66;8222553;29;20195;-62
2021/06/26 00:50:06;;;;;;;17.87;15.13;;;;;;;19.49;64.59;98236.28;8222909;29;20206;-62
2021/06/26 00:54:08;;;;;;;17.73;15.10;;;;;;;19.49;64.54;98241.53;8223088;29;20512;-62
2021/06/26 00:58:11;;;;;;;20.80;17.90;;;;;;;19.47;64.52;98242.59;8222952;29;20212;-62
2021/06/26 01:02:15;;;;;;;20.93;18.70;;;;;;;19.52;64.94;98235.22;8222765;29;20211;-62
2021/06/26 01:06:18;;;;;;;19.93;17.83;;;;;;;19.48;64.66;98226.75;8221903;28;20237;-62
2021/06/26 01:10:21;;;;;;;17.47;15.67;;;;;;;19.39;64.12;98226.59;8230315;28;20231;-62
2021/06/26 01:14:24;;;;;;;18.03;15.30;;;;;;;19.30;64.34;98226.34;8254314;28;20209;-62
2021/06/26 01:18:28;;;;;;;19.57;16.17;;;;;;;19.37;64.58;98218.84;8253994;28;20203;-62
2021/06/26 01:22:36;;;;;;;20.03;15.87;;;;;;;19.48;64.08;98228.53;8254131;28;20233;-62
2021/06/26 01:26:40;;;;;;;17.53;15.37;;;;;;;19.54;63.28;98230.69;8254271;28;20210;-62
2021/06/26 01:30:42;;;;;;;21.97;15.67;;;;;;;19.49;63.01;98236.28;8253974;28;20227;-62
2021/06/26 01:34:45;;;;;;;21.73;18.63;;;;;;;19.34;63.95;98240.94;8253833;28;20206;-62
2021/06/26 01:38:55;;;;;;;22.07;19.70;;;;;;;19.43;63.26;98228.88;8253972;28;20229;-62
2021/06/26 01:42:58;;;;;;;21.30;19.20;;;;;;;19.12;63.84;98227.75;8254205;28;20208;-62
2021/06/26 01:47:01;;;;;;;19.33;17.33;;;;;;;19.00;63.99;98232.13;8253531;28;20210;-62
2021/06/26 01:51:04;;;;;;;18.27;15.80;;;;;;;19.07;63.31;98224.63;8253308;28;20231;-62
2021/06/26 01:55:10;;;;;;;17.97;14.53;;;;;;;19.04;63.15;98232.72;8253161;28;20486;-62
2021/06/26 01:59:12;;;;;;;16.37;14.87;;;;;;;18.82;63.54;98217.75;8253651;28;20304;-62
2021/06/26 02:03:15;;;;;;;16.87;15.27;;;;;;;18.69;64.11;98220.41;8251883;28;20213;-61
2021/06/26 02:07:18;;;;;;;16.50;14.83;;;;;;;18.81;63.63;98213.44;8251499;28;20226;-62
2021/06/26 02:11:22;;;;;;;15.37;13.93;;;;;;;18.79;63.23;98210.06;8251595;28;20698;-62
2021/06/26 02:15:25;;;;;;;22.03;17.60;;;;;;;18.66;63.66;98207.53;8250801;28;20207;-63
2021/06/26 02:19:28;;;;;;;23.63;17.13;;;;;;;18.67;63.74;98211.81;8251887;28;20213;-62
2021/06/26 02:23:31;;;;;;;20.23;18.10;;;;;;;18.84;63.09;98216.66;8251415;28;20210;-62
2021/06/26 02:27:35;;;;;;;23.43;18.07;;;;;;;18.64;63.60;98210.25;8251262;28;20532;-62
2021/06/26 02:31:38;;;;;;;23.00;18.87;;;;;;;18.59;63.87;98207.13;8251255;28;20225;-62
2021/06/26 02:35:41;;;;;;;20.90;18.77;;;;;;;18.48;63.91;98213.16;8251018;28;20283;-62
2021/06/26 02:39:43;;;;;;;22.10;18.57;;;;;;;18.59;63.71;98214.16;8250977;28;20207;-62
2021/06/26 02:43:48;;;;;;;21.30;19.20;;;;;;;18.62;63.63;98219.16;8250966;28;20206;-62
2021/06/26 02:47:50;;;;;;;23.07;20.57;;;;;;;18.55;63.94;98229.28;8250630;28;20202;-61
2021/06/26 02:51:53;;;;;;;22.87;19.77;;;;;;;18.44;64.37;98218.75;8250481;28;20233;-62
2021/06/26 02:55:56;;;;;;;19.50;17.60;;;;;;;18.45;64.10;98220.41;8250767;28;20202;-62
2021/06/26 03:00:00;;;;;;;19.87;17.23;;;;;;;18.66;63.39;98210.97;8250686;28;20209;-62
2021/06/26 03:04:03;;;;;;;18.07;16.27;;;;;;;18.66;63.41;98220.66;8250272;28;20207;-62
2021/06/26 03:08:06;;;;;;;16.70;14.97;;;;;;;18.65;63.56;98217.16;8250078;28;20310;-62
2021/06/26 03:12:10;;;;;;;16.47;14.87;;;;;;;18.43;64.01;98211.81;8249742;28;20300;-62
2021/06/26 03:16:15;;;;;;;15.80;14.30;;;;;;;18.24;64.68;98215.78;8250123;28;20209;-62
2021/06/26 03:20:17;;;;;;;13.83;12.43;;;;;;;18.24;64.79;98212.31;8249819;28;20237;-62
2021/06/26 03:24:20;;;;;;;11.97;10.97;;;;;;;18.46;64.44;98209.81;8249881;28;20392;-62
2021/06/26 03:28:23;;;;;;;12.10;11.10;;;;;;;18.33;64.76;98206.41;8249451;28;20242;-62
2021/06/26 03:32:27;;;;;;;10.03;9.23;;;;;;;18.44;64.62;98209.09;8249679;28;20237;-62
2021/06/26 03:36:30;;;;;;;10.90;10.00;;;;;;;18.83;63.47;98212.41;8249483;28;20397;-62
2021/06/26 03:40:33;;;;;;;13.60;12.40;;;;;;;18.71;63.70;98214.09;8249669;28;20214;-62
2021/06/26 03:44:37;;;;;;;13.07;12.07;;;;;;;18.78;64.10;98213.66;8249261;28;20214;-62
2021/06/26 03:48:41;;;;;;;13.83;12.03;;;;;;;18.81;63.85;98216.91;8249696;28;20202;-62
2021/06/26 03:52:44;;;;;;;13.50;12.27;;;;;;;18.68;64.16;98222.19;8249130;28;20245;-62
2021/06/26 03:56:46;;;;;;;13.53;12.30;;;;;;;18.73;63.81;98222.69;8249440;28;20217;-62
2021/06/26 04:00:50;;;;;;;13.97;12.67;;;;;;;18.81;63.79;98226.56;8248650;28;20210;-62
2021/06/26 04:04:54;;;;;;;14.37;13.07;;;;;;;18.82;63.58;98236.13;8249229;28;20209;-63
2021/06/26 04:08:56;;;;;;;16.87;15.07;;;;;;;18.82;63.68;98238.75;8249236;28;20411;-62
2021/06/26 04:12:59;;;;;;;20.23;18.27;;;;;;;18.81;63.92;98237.91;8249153;28;20251;-62
2021/06/26 04:17:02;;;;;;;20.47;18.23;;;;;;;18.84;64.13;98239.47;8249278;28;20229;-62
2021/06/26 04:21:07;;;;;;;21.30;19.20;;;;;;;18.85;64.16;98241.13;8249454;28;20214;-62
2021/06/26 04:25:10;;;;;;;23.37;20.93;;;;;;;18.79;64.68;98233.69;8249086;28;20221;-62
2021/06/26 04:29:13;;;;;;;23.90;20.73;;;;;;;18.79;65.04;98239.78;8249133;28;20203;-62
2021/06/26 04:33:16;;;;;;;23.47;21.27;;;;;;;18.87;64.89;98245.31;8248794;28;20541;-62
2021/06/26 04:37:21;;;;;;;22.20;19.93;;;;;;;18.79;65.03;98239.78;8248835;28;20218;-62
2021/06/26 04:41:24;;;;;;;20.90;18.70;;;;;;;18.91;64.83;98245.94;8253325;28;20202;-62
2021/06/26 04:45:27;;;;;;;21.43;17.33;;;;;;;18.92;64.83;98245.81;8254412;28;20202;-62
2021/06/26 04:49:30;;;;;;;19.77;17.67;;;;;;;18.93;64.64;98250.09;8254481;28;20210;-62
2021/06/26 04:53:34;;;;;;;25.23;21.67;;;;;;;18.91;65.75;98245.94;8254173;28;20257;-61
2021/06/26 04:57:37;;;;;;;29.73;26.37;;;;;;;18.68;67.07;98252.84;8253298;28;20269;-62
2021/06/26 05:01:40;;;;;;;29.30;26.17;;;;;;;18.85;66.70;98249.84;8253648;28;20528;-62
2021/06/26 05:05:43;;;;;;;35.00;29.10;;;;;;;18.62;67.34;98245.41;8253502;28;20227;-62
2021/06/26 05:09:47;;;;;;;27.67;24.27;;;;;;;19.05;66.52;98250.97;8253673;28;20222;-62
2021/06/26 05:13:50;;;;;;;32.13;28.10;;;;;;;18.95;66.84;98245.59;8253784;28;20253;-62
2021/06/26 05:17:53;;;;;;;32.17;26.10;;;;;;;18.90;67.32;98245.06;8253323;28;20205;-62
2021/06/26 05:21:56;;;;;;;31.57;27.93;;;;;;;18.82;68.31;98247.44;8253430;28;20237;-62
2021/06/26 05:26:00;;;;;;;30.00;26.47;;;;;;;19.02;67.63;98250.38;8253280;28;20210;-62
2021/06/26 05:30:04;;;;;;;27.97;24.93;;;;;;;19.08;67.72;98247.31;8252894;28;20202;-62
2021/06/26 05:34:06;;;;;;;31.13;25.93;;;;;;;19.05;68.10;98255.41;8252149;28;20245;-62
2021/06/26 05:38:10;;;;;;;28.00;24.83;;;;;;;19.00;68.32;98252.28;8252328;28;20206;-62
2021/06/26 05:42:14;;;;;;;28.83;25.57;;;;;;;19.03;68.21;98252.06;8251949;28;20389;-62
2021/06/26 05:46:16;;;;;;;47.23;28.37;;;;;;;18.78;68.56;98253.84;8252040;28;20199;-62
2021/06/26 05:50:19;;;;;;;27.73;24.83;;;;;;;19.02;68.15;98251.22;8252394;28;20481;-62
2021/06/26 05:54:22;;;;;;;27.93;24.93;;;;;;;18.98;68.40;98244.50;8252184;28;20230;-62
2021/06/26 05:58:27;;;;;;;31.60;27.13;;;;;;;19.18;68.43;98255.31;8252229;28;20222;-62
2021/06/26 06:02:30;;;;;;;33.33;28.63;;;;;;;19.17;68.12;98251.84;8252088;28;20187;-62
2021/06/26 06:06:33;;;;;;;34.43;28.50;;;;;;;19.13;67.66;98255.66;8252178;28;20424;-62
2021/06/26 06:10:36;;;;;;;34.40;30.73;;;;;;;18.94;68.26;98256.19;8251997;28;20230;-62
2021/06/26 06:14:40;;;;;;;32.30;28.80;;;;;;;19.30;67.20;98257.84;8251633;28;20480;-62
2021/06/26 06:18:43;;;;;;;35.30;31.50;;;;;;;19.23;68.30;98261.91;8251526;28;20202;-62
2021/06/26 06:22:46;;;;;;;35.40;30.03;;;;;;;19.17;67.84;98259.72;8251809;28;20214;-62
2021/06/26 06:26:49;;;;;;;35.53;30.87;;;;;;;19.67;66.68;98260.31;8251819;28;20397;-62
2021/06/26 06:30:53;;;;;;;32.80;27.57;;;;;;;19.71;66.50;98259.09;8251527;28;20218;-62
2021/06/26 06:34:56;;;;;;;30.10;26.90;;;;;;;19.61;67.65;98273.91;8251398;28;20250;-62
2021/06/26 06:38:58;;;;;;;27.63;24.73;;;;;;;19.81;66.82;98282.09;8251039;28;20216;-62
2021/06/26 06:43:01;;;;;;;27.40;24.63;;;;;;;19.85;66.41;98291.41;8250317;28;20206;-62
2021/06/26 06:47:06;;;;;;;29.77;26.57;;;;;;;19.64;67.33;98289.44;8247717;28;20200;-62
2021/06/26 06:51:08;;;;;;;29.33;26.13;;;;;;;19.75;66.56;98293.91;8249622;28;20467;-62
2021/06/26 06:55:11;;;;;;;32.17;27.40;;;;;;;19.72;66.61;98296.75;8249432;28;20579;-62
2021/06/26 06:59:14;;;;;;;29.87;26.70;;;;;;;19.61;67.58;98299.31;8249766;28;20222;-63
2021/06/26 07:03:18;;;;;;;30.30;27.13;;;;;;;19.68;67.59;98306.63;8246715;28;20267;-62
2021/06/26 07:07:21;;;;;;;32.40;29.00;;;;;;;19.52;67.83;98309.59;8249072;28;20458;-62
2021/06/26 07:11:24;;;;;;;33.00;29.40;;;;;;;19.49;67.55;98301.09;8248795;28;20231;-62
2021/06/26 07:15:27;;;;;;;29.37;26.37;;;;;;;19.61;68.17;98300.19;8247022;28;20286;-62
2021/06/26 07:19:31;;;;;;;32.03;28.63;;;;;;;19.54;68.22;98297.19;8249214;28;20429;-62
2021/06/26 07:23:34;;;;;;;29.37;26.43;;;;;;;19.85;66.64;98297.47;8249990;28;20445;-62
2021/06/26 07:27:37;;;;;;;30.30;27.33;;;;;;;19.81;66.31;98295.22;8249260;28;20286;-63
2021/06/26 07:31:40;;;;;;;41.33;29.10;;;;;;;19.97;66.05;98300.13;8249394;28;20203;-62
2021/06/26 07:35:44;;;;;;;34.70;31.00;;;;;;;19.57;66.96;98303.16;8249229;28;20218;-62
2021/06/26 07:39:47;;;;;;;31.67;28.40;;;;;;;19.83;66.92;98294.13;8249499;28;20202;-62
2021/06/26 07:43:51;;;;;;;31.87;28.43;;;;;;;19.81;66.40;98290.78;8250180;28;20233;-62
2021/06/26 07:47:53;;;;;;;32.63;29.43;;;;;;;19.71;66.91;98289.81;8249818;28;20206;-62
2021/06/26 07:51:58;;;;;;;29.40;26.23;;;;;;;20.08;66.20;98290.44;8249227;28;20200;-62
2021/06/26 07:56:01;;;;;;;33.43;29.57;;;;;;;20.37;65.62;98278.56;8249313;28;20249;-60
2021/06/26 08:00:05;;;;;;;36.87;33.17;;;;;;;20.21;64.92;98278.97;8249442;28;20202;-60
2021/06/26 08:04:08;;;;;;;36.80;32.90;;;;;;;20.34;65.19;98271.78;8249011;28;20229;-61
2021/06/26 08:08:12;;;;;;;34.17;30.60;;;;;;;20.63;65.72;98277.34;8248881;28;20521;-61
2021/06/26 08:12:17;;;;;;;37.90;32.83;;;;;;;20.55;64.22;98274.50;8249592;28;20245;-61
2021/06/26 08:16:20;;;;;;;35.57;31.83;;;;;;;20.62;64.61;98266.94;8252790;28;20386;-61
2021/06/26 08:20:23;;;;;;;37.97;33.77;;;;;;;20.64;63.99;98267.69;8254545;28;20201;-61
2021/06/26 08:24:27;;;;;;;33.20;29.63;;;;;;;20.98;64.15;98257.00;8254618;28;20209;-61
2021/06/26 08:28:35;;;;;;;33.83;30.43;;;;;;;21.77;62.24;98252.13;8253991;28;20204;-61
2021/06/26 08:32:38;;;;;;;33.80;30.40;;;;;;;22.33;59.68;98248.22;8255016;28;20208;-61
2021/06/26 08:36:41;;;;;;;32.00;28.77;;;;;;;22.31;59.62;98250.13;8254508;28;20223;-61
2021/06/26 08:40:46;;;;;;;29.83;26.73;;;;;;;22.55;59.24;98244.47;8254264;28;20195;-61
2021/06/26 08:44:50;;;;;;;32.07;28.80;;;;;;;23.06;56.15;98242.59;8254358;28;20199;-61
2021/06/26 08:48:53;;;;;;;37.77;27.93;;;;;;;23.22;57.01;98245.47;8254129;28;20195;-61
2021/06/26 08:52:55;;;;;;;30.80;27.60;;;;;;;23.50;55.54;98244.75;8252837;28;20203;-61
2021/06/26 08:57:00;;;;;;;34.17;25.57;;;;;;;24.10;54.28;98232.00;8254839;28;20470;-62
2021/06/26 09:01:02;;;;;;;29.43;24.70;;;;;;;24.42;53.38;98229.88;8251069;28;20202;-62
2021/06/26 09:05:07;;;;;;;25.97;23.20;;;;;;;24.84;52.28;98235.44;8247240;28;20337;-62
2021/06/26 09:09:09;;;;;;;27.77;24.83;;;;;;;24.95;50.98;98229.91;8248502;28;20231;-62
2021/06/26 09:13:19;;;;;;;27.43;24.53;;;;;;;25.08;52.22;98228.69;8221728;28;20338;-62
2021/06/26 09:17:31;;;;;;;25.90;23.17;;;;;;;25.37;52.13;98220.47;8219323;29;20200;-62
2021/06/26 09:21:36;;;;;;;23.07;20.87;;;;;;;25.64;49.27;98219.47;8220706;29;20196;-62
2021/06/26 09:25:39;;;;;;;21.93;19.73;;;;;;;25.81;50.49;98220.38;8218995;28;20200;-62
2021/06/26 09:29:50;;;;;;;19.67;16.70;;;;;;;26.20;48.05;98213.75;8215569;29;20413;-62
2021/06/26 09:33:58;;;;;;;17.17;15.37;;;;;;;26.26;45.87;98205.16;8220663;29;20541;-62
2021/06/26 09:38:04;;;;;;;16.00;14.40;;;;;;;26.33;45.01;98201.69;8220529;29;20422;-62
2021/06/26 09:42:15;;;;;;;14.43;13.03;;;;;;;26.60;44.62;98196.28;8218297;29;20195;-62
2021/06/26 09:46:20;;;;;;;13.60;12.30;;;;;;;26.81;44.97;98201.13;8220151;29;20209;-62
2021/06/26 09:50:25;;;;;;;18.13;16.43;;;;;;;25.94;44.19;98199.56;8217232;29;20258;-62
2021/06/26 09:54:28;;;;;;;14.80;13.27;;;;;;;26.65;43.20;98200.09;8219415;29;20233;-62
2021/06/26 09:58:36;;;;;;;13.77;12.33;;;;;;;26.13;44.11;98197.66;8219089;29;20497;-61
2021/06/26 10:02:41;;;;;;;12.80;11.30;;;;;;;25.63;43.76;98206.38;8216840;29;20208;-62
2021/06/26 10:06:44;;;;;;;18.80;14.60;;;;;;;25.58;45.25;98198.06;8218744;29;20281;-62
2021/06/26 10:10:47;;;;;;;12.10;10.90;;;;;;;26.89;45.53;98190.50;8230629;28;20229;-61
2021/06/26 10:14:50;;;;;;;26.00;10.63;;;;;;;27.23;43.99;98198.28;8250884;28;20236;-61
2021/06/26 10:18:54;;;;;;;9.03;8.10;;;;;;;27.10;40.25;98184.66;8251784;28;20204;-61
2021/06/26 10:22:59;;;;;;;10.27;8.43;;;;;;;27.22;39.92;98193.94;8252255;28;20223;-61
2021/06/26 10:27:02;;;;;;;9.17;8.27;;;;;;;27.78;40.78;98187.84;8251192;28;20208;-61
2021/06/26 10:31:11;;;;;;;11.37;8.90;;;;;;;27.87;40.10;98187.66;8251228;28;20206;-63
2021/06/26 10:35:15;;;;;;;10.97;8.13;;;;;;;27.03;40.94;98178.34;8250612;28;20225;-61
2021/06/26 10:39:24;;;;;;;9.30;6.73;;;;;;;27.34;39.28;98175.88;8249539;28;20196;-62
2021/06/26 10:43:29;;;;;;;7.87;7.13;;;;;;;27.66;37.11;98166.09;8250288;28;20422;-62
2021/06/26 10:47:36;;;;;;;9.37;8.33;;;;;;;27.78;35.85;98169.22;8250619;28;20211;-62
2021/06/26 10:51:41;;;;;;;12.80;9.37;;;;;;;27.33;36.75;98168.88;8248283;28;20196;-62
2021/06/26 10:55:44;;;;;;;8.30;7.40;;;;;;;27.96;38.00;98164.50;8250009;28;20223;-62
2021/06/26 11:00:01;;;;;;;8.90;8.10;;;;;;;27.69;37.41;98173.75;8249086;28;20211;-62
2021/06/26 11:04:10;;;;;;;8.23;7.40;;;;;;;28.18;36.53;98159.41;8249837;28;20550;-62
2021/06/26 11:08:20;;;;;;;7.33;6.17;;;;;;;28.86;35.96;98165.75;8227309;28;20220;-62
2021/06/26 11:12:22;;;;;;;7.00;5.80;;;;;;;27.94;36.47;98163.03;8250293;28;20247;-62
2021/06/26 11:16:25;;;;;;;7.33;6.57;;;;;;;27.51;38.03;98165.97;8249938;28;20226;-61
2021/06/26 11:20:29;;;;;;;5.60;5.07;;;;;;;27.45;34.72;98167.50;8250176;28;20280;-62
2021/06/26 11:24:35;;;;;;;7.80;4.87;;;;;;;27.30;35.66;98164.72;8250365;28;20212;-62
2021/06/26 11:28:41;;;;;;;5.33;4.83;;;;;;;27.15;34.69;98157.56;8249903;28;20209;-62
2021/06/26 11:32:44;;;;;;;4.53;4.10;;;;;;;27.32;34.12;98166.38;8249812;28;20200;-62
2021/06/26 11:36:58;;;;;;;5.73;4.77;;;;;;;26.73;33.82;98159.44;8249706;28;20226;-62
2021/06/26 11:41:06;;;;;;;4.50;4.10;;;;;;;27.30;34.85;98156.75;8250279;28;20211;-62
2021/06/26 11:45:12;;;;;;;4.90;4.37;;;;;;;27.01;34.00;98162.56;8249951;28;20203;-61
2021/06/26 11:49:15;;;;;;;4.53;4.23;;;;;;;27.03;34.82;98151.78;8253402;28;20297;-62
2021/06/26 11:53:21;;;;;;;5.97;4.90;;;;;;;27.36;33.29;98151.75;8255198;28;20197;-62
2021/06/26 11:57:29;;;;;;;5.13;4.63;;;;;;;27.95;33.21;98151.38;8255703;28;20231;-62
2021/06/26 12:01:33;;;;;;;6.23;5.10;;;;;;;27.40;33.34;98147.75;8255404;28;20391;-62
2021/06/26 12:05:36;;;;;;;5.63;5.13;;;;;;;27.24;33.97;98146.75;8253295;28;20445;-63
2021/06/26 12:09:41;;;;;;;4.60;4.20;;;;;;;27.75;34.42;98141.13;8255074;28;20200;-62
2021/06/26 12:13:46;;;;;;;5.63;5.13;;;;;;;27.72;34.52;98151.28;8255965;28;20210;-61
2021/06/26 12:17:49;;;;;;;7.73;5.03;;;;;;;27.80;33.96;98135.31;8254053;28;20228;-62
2021/06/26 12:21:53;;;;;;;6.73;5.37;;;;;;;28.12;35.10;98144.97;8254538;28;20198;-62
2021/06/26 12:25:56;;;;;;;5.80;5.00;;;;;;;27.96;34.98;98145.88;8254373;28;20227;-63
2021/06/26 12:30:01;;;;;;;6.20;5.60;;;;;;;27.84;34.43;98132.09;8254415;28;20210;-62
2021/06/26 12:34:06;;;;;;;5.57;5.10;;;;;;;28.65;33.22;98124.66;8252319;28;20232;-62
2021/06/26 12:38:09;;;;;;;6.03;4.90;;;;;;;28.62;32.68;98130.31;8250849;28;20223;-62
2021/06/26 12:42:12;;;;;;;5.93;4.70;;;;;;;28.38;33.56;98125.97;8244574;28;20510;-62
2021/06/26 12:46:17;;;;;;;6.03;5.40;;;;;;;27.90;32.64;98119.97;8253773;28;20209;-62
2021/06/26 12:50:19;;;;;;;4.90;4.37;;;;;;;27.77;34.08;98114.34;8253842;28;20197;-61
2021/06/26 12:54:22;;;;;;;5.03;4.63;;;;;;;27.59;33.61;98106.66;8251482;28;20219;-62
2021/06/26 12:58:25;;;;;;;7.93;5.60;;;;;;;28.30;33.63;98104.75;8253648;28;20209;-62
2021/06/26 13:02:37;;;;;;;6.00;5.50;;;;;;;28.82;34.88;98100.50;8252632;28;20197;-62
2021/06/26 13:06:47;;;;;;;6.93;5.37;;;;;;;29.23;35.78;98097.47;8252055;28;20239;-62
2021/06/26 13:10:51;;;;;;;5.63;5.13;;;;;;;28.52;35.25;98099.59;8239350;28;20248;-62
2021/06/26 13:14:56;;;;;;;6.20;5.60;;;;;;;28.33;35.61;98101.75;8219556;29;20222;-62
2021/06/26 13:19:01;;;;;;;7.93;6.17;;;;;;;27.46;35.72;98089.38;8222307;29;20203;-62
2021/06/26 13:23:03;;;;;;;5.60;5.10;;;;;;;26.94;36.67;98091.66;8222686;29;20390;-62
2021/06/26 13:27:07;;;;;;;4.57;4.17;;;;;;;27.15;35.89;98091.13;8222331;29;20520;-61
2021/06/26 13:31:09;;;;;;;7.30;4.60;;;;;;;27.11;34.67;98090.63;8222403;29;20293;-62
2021/06/26 13:35:14;;;;;;;4.83;4.33;;;;;;;26.65;35.47;98079.75;8222083;29;20229;-62
2021/06/26 13:39:17;;;;;;;4.93;4.43;;;;;;;26.42;37.52;98082.22;8221580;29;20216;-62
2021/06/26 13:43:20;;;;;;;4.50;4.10;;;;;;;26.40;36.46;98084.22;8221901;29;20211;-61
2021/06/26 13:47:23;;;;;;;4.80;4.30;;;;;;;26.42;37.05;98079.59;8221793;29;20221;-61
2021/06/26 13:51:28;;;;;;;5.10;4.60;;;;;;;26.44;38.19;98078.41;8221278;29;20212;-61
2021/06/26 13:55:30;;;;;;;4.43;3.80;;;;;;;26.38;38.09;98079.06;8220871;29;20238;-61
2021/06/26 13:59:34;;;;;;;4.50;4.10;;;;;;;26.43;38.58;98076.75;8221191;29;20548;-61
2021/06/26 14:03:37;;;;;;;3.83;3.47;;;;;;;26.29;38.83;98070.31;8221100;29;20211;-61
2021/06/26 14:07:41;;;;;;;4.30;4.00;;;;;;;26.63;38.52;98074.63;8221283;29;20263;-61
2021/06/26 14:11:44;;;;;;;4.30;4.00;;;;;;;26.59;39.32;98069.78;8239661;28;20249;-61
2021/06/26 14:15:47;;;;;;;5.00;4.60;;;;;;;26.47;40.06;98071.94;8252183;28;20236;-61
2021/06/26 14:19:50;;;;;;;4.53;4.13;;;;;;;26.36;40.11;98073.09;8251505;28;20216;-61
2021/06/26 14:23:54;;;;;;;4.83;4.43;;;;;;;26.33;40.29;98076.09;8251522;28;20214;-61
2021/06/26 14:27:57;;;;;;;4.83;4.33;;;;;;;26.20;41.20;98073.09;8251577;28;20207;-61
2021/06/26 14:32:00;;;;;;;4.97;4.43;;;;;;;26.13;41.46;98071.09;8251277;28;20205;-61
2021/06/26 14:36:03;;;;;;;4.47;4.10;;;;;;;26.11;41.71;98065.13;8250964;28;20318;-61
2021/06/26 14:40:09;;;;;;;4.77;4.33;;;;;;;26.10;42.08;98065.28;8250589;28;20509;-61
2021/06/26 14:44:12;;;;;;;4.83;4.20;;;;;;;26.04;42.04;98064.13;8250466;28;20221;-61
2021/06/26 14:48:15;;;;;;;5.30;4.80;;;;;;;25.98;43.26;98054.16;8250651;28;20230;-61
2021/06/26 14:52:18;;;;;;;4.40;3.93;;;;;;;25.97;42.51;98051.69;8250885;28;20225;-61
2021/06/26 14:56:22;;;;;;;4.97;4.60;;;;;;;26.02;44.06;98058.16;8250103;28;20235;-61
2021/06/26 15:00:25;;;;;;;5.60;4.80;;;;;;;26.00;43.15;98054.84;8250025;28;20203;-61
2021/06/26 15:04:28;;;;;;;5.33;4.83;;;;;;;26.05;43.07;98049.88;8249868;28;20203;-61
2021/06/26 15:08:30;;;;;;;5.97;5.40;;;;;;;26.02;43.71;98057.31;8249510;28;20238;-61
2021/06/26 15:12:35;;;;;;;5.50;5.00;;;;;;;26.04;43.37;98053.50;8249831;28;20347;-61
2021/06/26 15:16:38;;;;;;;5.07;4.43;;;;;;;26.04;42.84;98050.84;8249431;28;20246;-61
2021/06/26 15:20:41;;;;;;;4.77;4.10;;;;;;;26.08;42.11;98052.22;8249572;28;20209;-61
2021/06/26 15:24:45;;;;;;;4.60;4.10;;;;;;;26.15;43.23;98041.75;8249184;28;20229;-61
2021/06/26 15:28:49;;;;;;;5.17;4.67;;;;;;;26.10;43.29;98049.38;8249022;28;20207;-61
2021/06/26 15:32:52;;;;;;;4.33;3.90;;;;;;;26.08;42.44;98044.25;8248820;28;20223;-61
2021/06/26 15:36:55;;;;;;;5.90;4.30;;;;;;;25.93;43.21;98043.22;8249362;28;20248;-61
2021/06/26 15:41:00;;;;;;;5.20;4.23;;;;;;;25.86;43.49;98044.84;8248785;28;20216;-61
2021/06/26 15:45:07;;;;;;;4.20;3.87;;;;;;;25.92;43.42;98036.25;8248670;28;20271;-62
2021/06/26 15:49:11;;;;;;;4.63;4.23;;;;;;;25.98;42.20;98032.13;8248892;28;20211;-61
2021/06/26 15:53:14;;;;;;;4.30;3.90;;;;;;;25.90;41.75;98028.44;8249156;28;20224;-61
2021/06/26 15:57:17;;;;;;;4.27;3.87;;;;;;;25.96;42.87;98021.66;8249516;28;20236;-61
2021/06/26 16:01:22;;;;;;;5.17;4.33;;;;;;;26.01;41.63;98023.81;8249785;28;20228;-62
2021/06/26 16:05:24;;;;;;;7.40;4.70;;;;;;;25.99;42.92;98023.16;8249624;28;20557;-61
2021/06/26 16:09:27;;;;;;;5.93;4.30;;;;;;;25.96;43.41;98016.38;8249675;28;20205;-62
2021/06/26 16:13:30;;;;;;;5.20;4.80;;;;;;;25.99;43.23;98018.69;8249654;28;20223;-61
2021/06/26 16:17:38;;;;;;;5.50;5.00;;;;;;;25.87;43.36;98019.97;8249522;28;20241;-61
2021/06/26 16:21:41;;;;;;;8.27;4.73;;;;;;;25.82;43.21;98015.16;8249541;28;20293;-61
2021/06/26 16:25:43;;;;;;;5.90;4.50;;;;;;;25.73;43.32;98013.50;8249229;28;20243;-61
2021/06/26 16:29:46;;;;;;;4.73;4.33;;;;;;;25.70;43.87;98004.03;8249686;28;20395;-61
2021/06/26 16:33:51;;;;;;;4.70;4.30;;;;;;;25.74;43.46;98002.72;8249598;28;20206;-61
2021/06/26 16:38:03;;;;;;;4.90;4.40;;;;;;;25.73;43.67;97993.09;8254221;28;20230;-61
2021/06/26 16:42:06;;;;;;;4.63;4.23;;;;;;;25.67;43.54;97990.28;8254958;28;20396;-61
2021/06/26 16:46:09;;;;;;;5.17;4.67;;;;;;;25.58;43.96;97983.31;8254400;28;20218;-61
2021/06/26 16:50:13;;;;;;;5.07;4.10;;;;;;;25.52;43.30;97977.66;8254599;28;20213;-61
2021/06/26 16:54:16;;;;;;;4.93;4.43;;;;;;;25.61;44.11;97970.56;8254346;28;20205;-61
2021/06/26 16:58:21;;;;;;;7.10;4.53;;;;;;;25.56;44.62;97967.53;8254084;28;20226;-61
2021/06/26 17:02:23;;;;;;;4.93;4.30;;;;;;;25.59;44.78;97966.38;8253994;28;20209;-61
2021/06/26 17:06:28;;;;;;;4.67;4.10;;;;;;;25.66;44.67;97962.91;8253696;28;20240;-61
2021/06/26 17:10:33;;;;;;;4.53;4.00;;;;;;;25.65;45.34;97966.56;8253841;28;20344;-61
2021/06/26 17:14:37;;;;;;;5.60;4.17;;;;;;;25.61;45.31;97964.41;8254124;28;20216;-61
2021/06/26 17:18:39;;;;;;;4.83;4.37;;;;;;;25.58;45.80;97970.03;8253498;28;20226;-61
2021/06/26 17:22:43;;;;;;;5.53;4.03;;;;;;;25.56;45.89;97970.19;8253216;28;20229;-61
2021/06/26 17:26:46;;;;;;;4.70;3.90;;;;;;;25.50;45.46;97971.69;8253513;28;20471;-61
2021/06/26 17:30:50;;;;;;;4.40;4.00;;;;;;;25.43;44.53;97965.38;8253285;28;20203;-61
2021/06/26 17:34:53;;;;;;;4.30;3.90;;;;;;;25.43;45.75;97968.00;8253381;28;20298;-61
2021/06/26 17:38:57;;;;;;;3.97;3.60;;;;;;;25.39;44.90;97976.47;8253229;28;20231;-61
2021/06/26 17:43:00;;;;;;;5.07;4.13;;;;;;;25.34;44.61;97975.13;8252884;28;20221;-61
2021/06/26 17:47:04;;;;;;;4.80;4.30;;;;;;;25.26;45.04;97969.78;8252696;28;20208;-61
2021/06/26 17:51:07;;;;;;;4.93;3.97;;;;;;;25.27;45.48;97978.59;8252848;28;20207;-62
2021/06/26 17:55:12;;;;;;;6.63;3.90;;;;;;;25.24;43.77;97979.72;8252628;28;20418;-62
2021/06/26 17:59:15;;;;;;;4.70;3.80;;;;;;;25.16;45.22;97974.38;8252392;28;20244;-62
2021/06/26 18:03:18;;;;;;;4.03;3.63;;;;;;;25.14;44.22;97979.00;8252496;28;20368;-62
2021/06/26 18:07:21;;;;;;;3.37;3.07;;;;;;;25.10;43.62;97975.03;8252081;28;20425;-61
2021/06/26 18:11:28;;;;;;;4.10;3.33;;;;;;;25.08;44.80;97977.00;8252132;28;20258;-62
2021/06/26 18:15:32;;;;;;;4.00;3.70;;;;;;;25.04;45.80;97979.13;8252192;28;20209;-61
2021/06/26 18:19:36;;;;;;;4.23;3.83;;;;;;;24.97;44.87;97981.56;8251596;28;20504;-62
2021/06/26 18:23:39;;;;;;;4.07;3.77;;;;;;;24.84;44.17;97983.00;8251706;28;20386;-61
2021/06/26 18:27:43;;;;;;;3.90;3.60;;;;;;;24.82;45.08;97993.75;8251615;28;20217;-61
2021/06/26 18:31:46;;;;;;;4.40;3.80;;;;;;;24.78;46.04;97990.59;8252020;28;20236;-61
2021/06/26 18:35:49;;;;;;;5.83;4.10;;;;;;;24.67;46.45;97996.16;8251657;28;20206;-61
2021/06/26 18:39:52;;;;;;;4.57;4.17;;;;;;;24.70;47.27;97997.69;8251935;28;20234;-61
2021/06/26 18:43:56;;;;;;;5.63;3.90;;;;;;;24.63;46.67;98005.41;8252352;28;20210;-61
2021/06/26 18:47:59;;;;;;;5.40;4.23;;;;;;;24.30;47.65;98010.44;8251686;28;20205;-62
2021/06/26 18:52:02;;;;;;;4.23;3.83;;;;;;;24.49;47.39;98011.25;8251407;28;20498;-61